KGFA/GFA METAR and TAF weather

Enter ICAO airport designator
Station Type Date Time Source
KGFA METAR 2019/08/24 05:58 UTC NOAA

KGFA 240558Z AUTO 20010KT 10SM FEW200 SCT230 18/10 A2986 RMK AO2 SLP102 T01780100 10250 20160 57006 $


Station Type Date Time Source
KGFA Decoded METAR 2019/08/24 05:58 UTC NOAA

Station name not available
Aug 24, 2019 - 01:58 AM EDT / 2019.08.24 0558 UTC
Wind: from the SSW (200 degrees) at 12 MPH (10 KT):0
Visibility: 10 mile(s):0
Sky conditions: partly cloudy
Temperature: 64.0 F (17.8 C)
Dew Point: 50.0 F (10.0 C)
Relative Humidity: 60%
Pressure (altimeter): 29.86 in. Hg (1011 hPa)
Pressure tendency: 0.02 inches (0.6 hPa) lower than three hours ago
ob: KGFA 240558Z AUTO 20010KT 10SM FEW200 SCT230 18/10 A2986 RMK AO2 SLP102 T01780100 10250 20160 57006
cycle: 6

Station Type Date Time Source
KGFA TAF 2019/08/24 03:02 UTC NOAA

TAF KGFA 240300Z 2403/2509 VRB06KT 9999 SCT050 QNH2985INS
BECMG 2409/2410 VRB06KT 9999 BKN070 QNH2986INS
BECMG 2412/2413 17009KT 8000 -SHRA OVC050 QNH2987INS
BECMG 2418/2419 24012G18KT 9000 -SHRA OVC070 QNH2988INS
BECMG 2500/2501 VRB06KT 9999 NSW BKN120 QNH2982INS
BECMG 2508/2509 26009KT 9999 FEW100 QNH2986INS TX24/2418Z TN15/2412Z

Example: see airport list